Time;durP1;ratioP1;P1;durP2;ratioP2;P2;SDS_P1;SDS_P2;PMS_P1;PMS_P2;Temp;Humidity;BMP_temperature;BMP_pressure;BME280_temperature;BME280_humidity;BME280_pressure;Samples;Min_cycle;Max_cycle;Signal;HPM_P1;HPM_P2
2022/04/12 00:01:51;;;;;;;14.95;11.98;;;;;;;29.96;58.94;100846.75;5121283;27;70197;-34
2022/04/12 00:04:22;;;;;;;16.08;12.23;;;;;;;30.03;60.30;100847.53;5128792;27;67370;-33
2022/04/12 00:06:53;;;;;;;16.58;13.18;;;;;;;30.08;60.76;100850.41;5118569;27;69860;-34
2022/04/12 00:09:24;;;;;;;27.08;13.50;;;;;;;30.16;61.64;100850.16;5113671;27;65847;-33
2022/04/12 00:11:55;;;;;;;19.08;14.05;;;;;;;30.21;61.62;100854.94;5100479;27;69684;-35
2022/04/12 00:14:27;;;;;;;22.67;14.18;;;;;;;30.23;63.16;100864.53;5111847;27;66330;-34
2022/04/12 00:19:47;;;;;;;41.92;21.52;;;;;;;30.28;66.86;100878.25;5101826;27;66125;-34
2022/04/12 00:22:18;;;;;;;37.15;21.55;;;;;;;30.22;68.78;100880.97;5119533;27;70107;-33
2022/04/12 00:24:49;;;;;;;42.35;23.83;;;;;;;30.19;67.69;100871.38;5092406;27;65252;-33
2022/04/12 00:27:20;;;;;;;26.67;21.73;;;;;;;30.22;69.08;100887.22;5116130;27;69990;-32
2022/04/12 00:29:50;;;;;;;34.55;22.15;;;;;;;30.24;68.96;100887.84;5103843;27;65381;-33
2022/04/12 00:32:21;;;;;;;38.55;23.58;;;;;;;30.23;68.66;100896.19;5103370;27;70426;-32
2022/04/12 00:34:53;;;;;;;38.50;24.95;;;;;;;30.22;68.63;100905.31;5107395;27;67068;-34
2022/04/12 00:37:23;;;;;;;36.45;23.13;;;;;;;30.25;68.04;100884.06;5100982;27;70069;-34
2022/04/12 00:39:55;;;;;;;31.88;22.17;;;;;;;30.34;68.94;100900.06;5115452;27;65649;-32
2022/04/12 00:42:26;;;;;;;31.90;20.25;;;;;;;30.47;65.25;100898.09;5117323;27;68758;-33
2022/04/12 00:44:57;;;;;;;23.85;17.25;;;;;;;30.64;63.64;100909.25;5112567;27;66280;-33
2022/04/12 00:47:28;;;;;;;18.13;16.27;;;;;;;30.70;63.30;100911.09;5107543;27;69777;-35
2022/04/12 00:49:58;;;;;;;21.52;15.93;;;;;;;30.79;62.85;100911.66;5113635;27;65421;-33
2022/04/12 00:52:30;;;;;;;19.90;15.43;;;;;;;30.88;62.28;100914.97;5120778;27;69420;-33
2022/04/12 00:55:02;;;;;;;17.17;15.38;;;;;;;30.92;62.37;100918.88;5107179;27;66587;-32
2022/04/12 00:57:33;;;;;;;;;;;;;;;30.63;64.05;100920.31;5100240;27;70616;-34
2022/04/12 01:00:07;;;;;;;21.15;15.05;;;;;;;30.60;61.52;100853.91;5098696;27;67181;-32
2022/04/12 01:02:39;;;;;;;15.90;14.52;;;;;;;31.06;61.81;100923.16;5123302;27;69962;-33
2022/04/12 01:05:10;;;;;;;17.33;15.23;;;;;;;31.09;61.71;100914.59;5104824;27;65467;-32
2022/04/12 01:07:43;;;;;;;16.05;14.48;;;;;;;30.99;60.86;100895.28;5113550;27;70624;-32
2022/04/12 01:10:15;;;;;;;17.00;15.18;;;;;;;31.19;61.27;100916.81;5101156;27;65751;-34
2022/04/12 01:12:47;;;;;;;15.40;14.18;;;;;;;31.21;60.67;100908.47;5101526;27;70838;-32
2022/04/12 01:15:21;;;;;;;16.38;14.95;;;;;;;31.12;60.85;100889.78;5101940;27;66534;-31
2022/04/12 01:17:53;;;;;;;15.32;13.73;;;;;;;31.32;60.54;100915.88;5102446;27;70062;-33
2022/04/12 01:20:28;;;;;;;16.00;13.70;;;;;;;31.32;60.02;100921.28;5116341;27;65170;-31
2022/04/12 01:23:23;;;;;;;15.30;13.07;;;;;;;31.28;60.58;100925.47;5106085;27;70403;-33
2022/04/12 01:25:54;;;;;;;15.75;13.85;;;;;;;31.39;59.93;100922.06;5099146;27;65933;-33
2022/04/12 01:28:25;;;;;;;15.25;13.93;;;;;;;31.40;59.71;100912.91;5099471;27;72057;-33
2022/04/12 01:30:56;;;;;;;21.55;15.80;;;;;;;31.37;59.57;100900.63;5101202;27;66245;-32
2022/04/12 01:33:27;;;;;;;14.48;13.20;;;;;;;31.46;59.46;100914.72;5118283;27;70197;-33
2022/04/12 01:35:58;;;;;;;14.40;13.13;;;;;;;31.49;58.80;100919.69;5118054;27;66064;-33
2022/04/12 01:38:29;;;;;;;15.15;13.88;;;;;;;31.54;58.92;100914.44;5100732;27;70390;-32
2022/04/12 01:41:00;;;;;;;15.43;13.15;;;;;;;31.57;58.61;100919.41;5106302;27;66474;-33
2022/04/12 01:43:31;;;;;;;14.93;13.82;;;;;;;31.60;58.41;100918.13;5108858;27;70697;-32
2022/04/12 01:46:02;;;;;;;15.02;13.60;;;;;;;31.63;58.04;100923.09;5100224;27;66080;-32
2022/04/12 01:48:32;;;;;;;14.23;12.88;;;;;;;31.66;58.46;100916.41;5104304;27;69245;-33
2022/04/12 01:51:03;;;;;;;14.02;13.02;;;;;;;31.70;58.11;100923.00;5111297;27;66547;-33
2022/04/12 01:53:37;;;;;;;15.93;14.63;;;;;;;31.71;58.03;100924.69;5123969;27;70737;-33
2022/04/12 01:56:07;;;;;;;14.55;13.18;;;;;;;31.73;57.80;100922.56;5121669;27;65207;-33
2022/04/12 01:58:38;;;;;;;14.88;13.40;;;;;;;31.71;57.63;100919.25;5102689;27;69623;-32
2022/04/12 02:01:09;;;;;;;15.55;14.02;;;;;;;31.71;57.57;100911.13;5085532;27;66269;-32
2022/04/12 02:03:40;;;;;;;16.87;14.07;;;;;;;31.80;57.52;100924.16;5119397;27;70192;-32
2022/04/12 02:06:11;;;;;;;16.50;14.68;;;;;;;31.81;57.46;100914.13;5119447;27;66690;-33
2022/04/12 02:08:43;;;;;;;16.35;14.73;;;;;;;31.81;57.48;100908.69;5102590;27;69025;-33
2022/04/12 02:11:15;;;;;;;15.32;13.85;;;;;;;31.89;57.49;100932.81;5097296;27;65046;-33
2022/04/12 02:13:46;;;;;;;16.40;14.90;;;;;;;31.87;57.10;100928.66;5104204;27;69971;-33
2022/04/12 02:16:17;;;;;;;15.77;14.35;;;;;;;31.91;56.92;100935.31;5132905;27;66601;-32
2022/04/12 02:18:49;;;;;;;16.33;14.77;;;;;;;31.93;57.01;100927.78;5108374;27;70294;-34
2022/04/12 02:21:19;;;;;;;16.77;15.10;;;;;;;31.95;57.19;100928.41;5102536;27;66957;-34
2022/04/12 02:23:50;;;;;;;17.38;15.60;;;;;;;31.98;56.87;100926.09;5113551;27;69729;-33
2022/04/12 02:26:21;;;;;;;16.90;15.27;;;;;;;31.96;56.63;100920.06;5111807;27;66129;-32
2022/04/12 02:28:52;;;;;;;17.02;15.45;;;;;;;32.04;56.64;100918.91;5114295;27;69696;-33
2022/04/12 02:31:23;;;;;;;15.88;14.57;;;;;;;32.07;56.74;100912.19;5114479;27;67153;-33
2022/04/12 02:33:54;;;;;;;17.85;16.15;;;;;;;32.08;56.68;100909.25;5116245;27;70477;-33
2022/04/12 02:36:25;;;;;;;17.15;15.65;;;;;;;32.11;56.66;100913.41;5111492;27;65225;-34
2022/04/12 02:38:56;;;;;;;16.63;15.03;;;;;;;32.13;56.34;100917.53;5087175;27;69979;-33
2022/04/12 02:41:27;;;;;;;17.92;15.95;;;;;;;32.09;56.26;100904.66;5105247;27;66286;-34
2022/04/12 02:43:57;;;;;;;16.33;14.82;;;;;;;32.19;56.09;100899.53;5109378;27;69843;-32
2022/04/12 02:46:28;;;;;;;16.05;14.63;;;;;;;32.22;55.96;100904.50;5103080;27;67067;-32
2022/04/12 02:48:59;;;;;;;18.17;15.53;;;;;;;32.24;55.99;100897.78;5121543;27;70016;-33
2022/04/12 02:51:30;;;;;;;16.40;14.98;;;;;;;32.28;56.00;100898.13;5102881;27;66520;-37
2022/04/12 02:54:02;;;;;;;17.30;15.65;;;;;;;32.31;55.58;100897.66;5102914;27;70512;-32
2022/04/12 02:56:32;;;;;;;16.88;15.10;;;;;;;32.32;55.49;100899.34;5121974;27;65325;-33
2022/04/12 02:59:04;;;;;;;16.42;15.18;;;;;;;32.30;55.54;100890.59;5083056;27;70758;-33
2022/04/12 03:01:35;;;;;;;16.05;14.85;;;;;;;32.36;55.62;100888.84;5116569;27;66550;-32
2022/04/12 03:04:06;;;;;;;16.37;14.87;;;;;;;32.38;55.60;100893.00;5121124;27;70385;-32
2022/04/12 03:06:37;;;;;;;16.58;15.02;;;;;;;32.42;55.03;100887.91;5111683;27;66314;-33
2022/04/12 03:09:08;;;;;;;16.65;15.00;;;;;;;32.43;54.81;100890.41;5104099;27;69224;-33
2022/04/12 03:11:39;;;;;;;17.00;15.37;;;;;;;32.44;54.96;100891.25;5137113;27;68229;-33
2022/04/12 03:14:10;;;;;;;17.30;15.85;;;;;;;32.16;55.20;100840.28;5113620;27;69582;-31
2022/04/12 03:16:42;;;;;;;16.27;14.87;;;;;;;32.47;55.08;100891.63;5108418;27;67461;-35
2022/04/12 03:19:13;;;;;;;16.42;14.80;;;;;;;32.50;54.95;100876.75;5117497;27;69987;-33
2022/04/12 03:21:45;;;;;;;17.13;15.60;;;;;;;32.52;55.00;100868.41;5122426;27;65499;-33
2022/04/12 03:24:16;;;;;;;15.80;14.60;;;;;;;32.53;54.88;100872.75;5121674;27;69435;-33
2022/04/12 03:26:46;;;;;;;16.52;15.07;;;;;;;32.56;54.73;100867.69;5119619;27;66170;-32
2022/04/12 03:29:18;;;;;;;16.25;14.93;;;;;;;32.50;54.57;100863.19;5101903;27;70078;-33
2022/04/12 03:31:49;;;;;;;15.68;14.32;;;;;;;32.60;54.65;100863.47;5122639;27;66170;-33
2022/04/12 03:34:19;;;;;;;16.90;15.30;;;;;;;32.61;54.22;100869.72;5105059;27;70546;-33
2022/04/12 03:36:50;;;;;;;17.17;15.50;;;;;;;32.62;54.65;100861.31;5124498;27;66263;-31
2022/04/12 03:39:21;;;;;;;20.65;16.42;;;;;;;32.64;54.50;100852.94;5108141;27;69832;-32
2022/04/12 03:41:52;;;;;;;17.90;16.30;;;;;;;32.67;54.44;100857.91;5114328;27;66345;-32
2022/04/12 03:44:23;;;;;;;17.90;16.20;;;;;;;32.65;54.62;100854.59;5116624;27;69735;-33
2022/04/12 03:46:53;;;;;;;17.63;16.02;;;;;;;32.69;54.33;100845.75;5113816;27;66224;-35
2022/04/12 03:49:24;;;;;;;17.85;15.95;;;;;;;32.67;54.42;100831.56;5102487;27;70420;-33
2022/04/12 03:51:55;;;;;;;18.25;16.52;;;;;;;32.69;54.43;100834.06;5102946;27;66774;-32
2022/04/12 03:54:26;;;;;;;21.55;16.92;;;;;;;32.72;54.17;100833.59;5116929;27;70043;-32
2022/04/12 03:56:57;;;;;;;18.85;16.90;;;;;;;32.72;53.93;100829.00;5106153;27;66450;-32
2022/04/12 03:59:27;;;;;;;18.40;16.60;;;;;;;32.74;53.99;100814.38;5122628;27;69975;-33
2022/04/12 04:01:58;;;;;;;18.85;16.17;;;;;;;32.80;54.15;100822.41;5119930;27;66447;-33
2022/04/12 04:04:29;;;;;;;21.10;15.97;;;;;;;32.79;53.96;100818.03;5122550;27;69782;-33
2022/04/12 04:07:05;;;;;;;16.77;15.35;;;;;;;32.83;53.72;100819.19;5120634;27;64097;-32
2022/04/12 04:09:36;;;;;;;17.65;16.05;;;;;;;32.85;53.72;100817.09;5120894;27;70238;-31
2022/04/12 04:12:08;;;;;;;20.20;16.23;;;;;;;32.84;53.48;100803.72;5090754;27;66173;-33
2022/04/12 04:14:42;;;;;;;17.38;15.82;;;;;;;32.81;53.83;100802.31;5114797;27;70090;-33
2022/04/12 04:17:12;;;;;;;17.42;15.70;;;;;;;32.89;53.75;100809.28;5105102;27;65443;-32
2022/04/12 04:19:43;;;;;;;17.97;15.97;;;;;;;32.91;53.79;100808.00;5108607;27;69416;-33
2022/04/12 04:22:14;;;;;;;18.50;16.40;;;;;;;32.94;53.53;100804.78;5101627;27;67100;-32
2022/04/12 04:24:45;;;;;;;16.67;15.20;;;;;;;32.97;53.49;100786.38;5101674;27;70650;-32
2022/04/12 04:27:16;;;;;;;17.83;15.93;;;;;;;32.97;53.66;100791.81;5117810;27;65592;-32
2022/04/12 04:29:47;;;;;;;16.67;15.20;;;;;;;32.98;53.72;100788.00;5110602;27;71522;-32
2022/04/12 04:32:17;;;;;;;18.33;16.58;;;;;;;32.98;53.42;100769.00;5121738;27;66698;-33
2022/04/12 04:34:48;;;;;;;22.58;16.05;;;;;;;33.03;53.43;100777.31;5117045;27;70169;-32
2022/04/12 04:37:19;;;;;;;17.90;16.27;;;;;;;33.05;53.37;100767.03;5099944;27;65612;-32
2022/04/12 04:39:49;;;;;;;18.92;16.45;;;;;;;33.07;53.32;100759.44;5104840;27;69433;-32
2022/04/12 04:42:20;;;;;;;17.88;16.17;;;;;;;33.04;53.22;100754.47;5120162;27;66152;-33
2022/04/12 04:44:51;;;;;;;16.75;15.18;;;;;;;33.09;53.35;100749.97;5112200;27;70111;-32
2022/04/12 04:47:21;;;;;;;18.20;16.08;;;;;;;33.10;53.48;100748.13;5116595;27;66397;-33
2022/04/12 04:49:52;;;;;;;18.00;16.30;;;;;;;33.12;53.11;100745.97;5105210;27;69067;-33
2022/04/12 04:52:23;;;;;;;18.55;15.73;;;;;;;33.06;53.12;100719.75;5100505;27;65607;-32
2022/04/12 04:54:54;;;;;;;18.63;15.83;;;;;;;33.08;53.00;100723.06;5106865;27;70341;-33
2022/04/12 04:57:24;;;;;;;17.45;15.20;;;;;;;33.16;52.96;100730.84;5110093;27;66614;-32
2022/04/12 04:59:55;;;;;;;17.43;15.80;;;;;;;33.07;53.09;100715.97;5120624;27;69628;-33
2022/04/12 05:02:26;;;;;;;19.02;16.33;;;;;;;33.17;53.03;100720.78;5105909;27;65153;-33
2022/04/12 05:04:57;;;;;;;17.77;15.93;;;;;;;33.16;53.17;100719.97;5119939;27;70245;-32
2022/04/12 05:07:29;;;;;;;21.88;16.33;;;;;;;33.17;52.97;100721.63;5118579;27;64897;-33
2022/04/12 05:09:59;;;;;;;17.83;16.08;;;;;;;33.20;53.06;100707.53;5120345;27;69941;-33
2022/04/12 05:12:30;;;;;;;18.53;15.53;;;;;;;33.22;52.83;100708.13;5118687;27;67071;-33
2022/04/12 05:15:01;;;;;;;18.40;16.35;;;;;;;33.25;52.85;100699.50;5136680;27;70133;-33
2022/04/12 05:17:32;;;;;;;17.48;15.77;;;;;;;33.25;52.74;100690.53;5104289;27;66455;-32
2022/04/12 05:20:07;;;;;;;17.73;15.90;;;;;;;33.31;52.46;100679.50;5115364;27;70290;-33
2022/04/12 05:22:38;;;;;;;17.98;16.17;;;;;;;33.32;52.54;100675.72;5100045;27;66326;-32
2022/04/12 05:25:08;;;;;;;18.30;16.50;;;;;;;33.33;52.41;100666.50;5107575;27;70217;-33
2022/04/12 05:27:39;;;;;;;18.08;16.17;;;;;;;33.34;52.60;100654.53;5134750;27;66233;-32
2022/04/12 05:30:13;;;;;;;17.85;15.98;;;;;;;33.39;52.72;100648.38;5108005;27;70361;-32
2022/04/12 05:32:44;;;;;;;17.40;15.93;;;;;;;33.41;52.32;100659.03;5118666;27;64897;-32
2022/04/12 05:35:16;;;;;;;17.13;15.50;;;;;;;33.41;52.54;100648.16;5109075;27;70883;-35
2022/04/12 05:37:53;;;;;;;17.65;16.15;;;;;;;33.43;52.44;100648.72;5098563;27;65826;-33
2022/04/12 05:40:24;;;;;;;18.80;17.10;;;;;;;33.43;52.46;100643.28;5102771;27;69773;-33
2022/04/12 05:42:55;;;;;;;18.13;16.23;;;;;;;33.45;52.26;100633.00;5120428;27;66266;-32
2022/04/12 05:45:31;;;;;;;18.15;16.55;;;;;;;33.43;52.52;100621.53;5104195;27;70268;-33
2022/04/12 05:48:02;;;;;;;17.75;16.02;;;;;;;33.43;52.24;100622.34;5109564;27;66742;-32
2022/04/12 05:50:33;;;;;;;18.33;16.42;;;;;;;33.42;52.40;100614.44;5110754;27;70788;-32
2022/04/12 05:53:03;;;;;;;17.20;15.52;;;;;;;33.47;52.09;100609.09;5104809;27;66139;-32
2022/04/12 05:55:34;;;;;;;17.80;16.07;;;;;;;33.50;52.29;100605.91;5103207;27;69746;-32
2022/04/12 05:58:05;;;;;;;17.25;15.52;;;;;;;33.53;52.12;100592.66;5104001;27;65636;-33
2022/04/12 06:00:36;;;;;;;17.40;15.65;;;;;;;33.55;52.00;100592.44;5103010;27;69412;-33
2022/04/12 06:03:07;;;;;;;17.77;16.08;;;;;;;33.50;52.20;100578.72;5104563;27;66747;-32
2022/04/12 06:05:38;;;;;;;16.83;15.20;;;;;;;33.57;52.01;100577.50;5104095;27;69092;-33
2022/04/12 06:08:09;;;;;;;16.73;15.27;;;;;;;33.61;52.11;100568.88;5104964;27;66199;-33
2022/04/12 06:10:39;;;;;;;17.38;15.77;;;;;;;33.59;51.95;100561.75;5096912;27;69857;-33
2022/04/12 06:13:10;;;;;;;16.90;15.45;;;;;;;33.63;51.99;100570.25;5103934;27;66126;-33
2022/04/12 06:15:42;;;;;;;17.35;15.65;;;;;;;33.64;51.98;100552.03;5112780;27;70546;-32
2022/04/12 06:18:13;;;;;;;16.73;15.23;;;;;;;33.65;51.96;100546.34;5103909;27;66610;-33
2022/04/12 06:20:44;;;;;;;16.90;15.38;;;;;;;33.64;51.74;100536.53;5102631;27;69893;-32
2022/04/12 06:23:15;;;;;;;16.17;14.87;;;;;;;33.67;51.97;100525.16;5102246;27;66109;-32
2022/04/12 06:25:46;;;;;;;16.58;15.25;;;;;;;33.68;51.72;100517.81;5099304;27;69209;-33
2022/04/12 06:28:17;;;;;;;16.15;14.93;;;;;;;33.70;51.74;100521.94;5117576;27;66116;-33
2022/04/12 06:30:48;;;;;;;17.17;15.45;;;;;;;33.74;51.81;100504.06;5102729;27;69558;-32
2022/04/12 06:33:19;;;;;;;17.00;15.15;;;;;;;33.69;51.77;100498.56;5104131;27;66039;-32
2022/04/12 06:35:50;;;;;;;16.67;15.00;;;;;;;33.77;51.72;100511.72;5103730;27;70053;-33
2022/04/12 06:38:21;;;;;;;16.37;14.60;;;;;;;33.72;51.41;100499.94;5084216;27;66407;-33
2022/04/12 06:40:52;;;;;;;16.37;15.07;;;;;;;33.79;51.49;100511.47;5090882;27;69004;-32
2022/04/12 06:43:23;;;;;;;16.03;14.50;;;;;;;33.80;51.54;100505.78;5120420;27;66079;-33
2022/04/12 06:45:54;;;;;;;16.05;14.63;;;;;;;33.86;51.29;100495.00;5118683;27;69171;-33
2022/04/12 06:48:25;;;;;;;16.23;14.93;;;;;;;33.85;51.51;100493.31;5102634;27;65338;-33
2022/04/12 06:50:55;;;;;;;19.77;14.80;;;;;;;33.86;51.24;100495.00;5103036;27;70142;-33
2022/04/12 06:53:26;;;;;;;15.88;14.60;;;;;;;33.85;51.48;100482.44;5103910;27;66642;-32
2022/04/12 06:55:57;;;;;;;16.20;14.50;;;;;;;33.85;51.10;100483.28;5102768;27;69883;-34
2022/04/12 06:58:28;;;;;;;15.03;13.80;;;;;;;33.87;51.04;100480.31;5115669;27;67672;-32
2022/04/12 07:00:58;;;;;;;15.15;13.85;;;;;;;33.88;51.63;100471.06;5106871;27;69840;-33
2022/04/12 07:03:35;;;;;;;14.85;13.75;;;;;;;33.87;51.42;100464.78;5138554;27;66334;-33
2022/04/12 07:06:06;;;;;;;16.13;14.82;;;;;;;33.91;51.26;100465.94;5110369;27;71318;-33
2022/04/12 07:08:37;;;;;;;15.68;14.57;;;;;;;33.89;51.40;100459.13;5104170;27;66249;-33
2022/04/12 07:11:14;;;;;;;14.43;13.43;;;;;;;33.91;51.38;100455.06;5116841;27;68646;-33
2022/04/12 07:13:45;;;;;;;15.27;13.95;;;;;;;33.93;51.06;100452.09;5116254;27;64996;-32
2022/04/12 07:16:16;;;;;;;16.17;14.70;;;;;;;33.94;51.00;100448.31;5102803;27;69662;-33
2022/04/12 07:18:46;;;;;;;14.82;13.63;;;;;;;33.66;51.20;100392.97;5100280;27;66318;-34
2022/04/12 07:21:21;;;;;;;15.05;13.73;;;;;;;33.96;51.24;100436.09;5119170;27;69560;-33
2022/04/12 07:23:51;;;;;;;15.07;13.80;;;;;;;34.00;51.23;100436.41;5119831;27;66039;-33
2022/04/12 07:26:22;;;;;;;15.70;14.40;;;;;;;34.01;51.44;100427.16;5111631;27;70924;-32
2022/04/12 07:28:53;;;;;;;15.98;14.18;;;;;;;33.99;51.38;100424.69;5118162;27;65630;-33
2022/04/12 07:31:23;;;;;;;14.48;13.45;;;;;;;33.92;51.10;100417.78;5105605;27;70110;-34
2022/04/12 07:33:54;;;;;;;15.60;14.25;;;;;;;33.93;51.30;100414.00;5103787;27;65583;-33
2022/04/12 07:36:25;;;;;;;14.38;13.13;;;;;;;33.93;51.54;100411.25;5102325;27;70555;-32
2022/04/12 07:38:56;;;;;;;15.05;13.95;;;;;;;34.03;51.01;100425.00;5103208;27;65941;-32
2022/04/12 07:41:27;;;;;;;16.48;13.52;;;;;;;34.04;51.19;100421.19;5101635;27;69676;-32
2022/04/12 07:43:58;;;;;;;15.52;14.18;;;;;;;33.94;51.29;100404.78;5109234;27;66673;-33
2022/04/12 07:46:29;;;;;;;15.82;14.05;;;;;;;34.03;51.30;100414.13;5115032;27;69027;-34
2022/04/12 07:49:00;;;;;;;14.83;13.63;;;;;;;34.02;51.27;100401.59;5108701;27;67689;-33
2022/04/12 07:51:31;;;;;;;16.45;15.00;;;;;;;34.00;51.43;100401.84;5116738;27;70321;-33
2022/04/12 07:54:03;;;;;;;16.10;14.80;;;;;;;33.96;51.59;100394.44;5121089;27;65580;-32
2022/04/12 07:56:35;;;;;;;14.93;13.73;;;;;;;34.09;51.36;100404.16;5120089;27;69991;-34
2022/04/12 07:59:06;;;;;;;15.37;14.27;;;;;;;34.07;51.65;100392.69;5122413;27;66261;-32
2022/04/12 08:01:38;;;;;;;15.60;14.07;;;;;;;34.08;51.17;100395.19;5120127;27;70142;-32
2022/04/12 08:04:09;;;;;;;;;;;;;;;33.78;51.95;100401.00;5121230;27;65432;-32
2022/04/12 08:06:40;;;;;;;14.95;13.73;;;;;;;34.03;51.72;100395.06;5122566;27;70628;-33
2022/04/12 08:09:11;;;;;;;15.20;13.95;;;;;;;34.05;51.60;100395.69;5110444;27;65251;-33
2022/04/12 08:11:42;;;;;;;14.75;13.60;;;;;;;34.08;51.29;100386.19;5101159;27;69932;-32
2022/04/12 08:14:13;;;;;;;15.77;14.25;;;;;;;34.11;51.54;100394.66;5102554;27;66407;-33
2022/04/12 08:16:44;;;;;;;16.27;14.45;;;;;;;34.07;51.44;100382.63;5105702;27;70746;-32
2022/04/12 08:19:15;;;;;;;15.57;14.17;;;;;;;34.12;51.36;100390.03;5117166;27;66429;-34
2022/04/12 08:21:46;;;;;;;16.13;14.70;;;;;;;34.13;51.42;100392.53;5106655;27;69496;-33
2022/04/12 08:24:17;;;;;;;15.80;14.40;;;;;;;34.14;51.08;100391.44;5115382;27;65692;-32
2022/04/12 08:26:48;;;;;;;16.75;14.70;;;;;;;34.15;51.60;100382.19;5102865;27;69441;-33
2022/04/12 08:29:19;;;;;;;14.38;13.35;;;;;;;34.15;51.48;100379.47;5101397;27;66121;-32
2022/04/12 08:31:50;;;;;;;14.02;13.13;;;;;;;34.11;51.32;100372.88;5102693;27;70152;-34
2022/04/12 08:34:21;;;;;;;15.52;14.25;;;;;;;34.12;51.53;100374.53;5115468;27;66126;-33
2022/04/12 08:36:52;;;;;;;15.60;14.10;;;;;;;33.74;51.29;100308.22;5119474;27;68845;-33
2022/04/12 08:39:23;;;;;;;15.98;14.57;;;;;;;34.17;51.40;100388.19;5102071;27;65798;-32
2022/04/12 08:41:58;;;;;;;16.43;14.80;;;;;;;34.19;51.24;100391.50;5118039;27;70760;-34
2022/04/12 08:44:30;;;;;;;15.90;14.50;;;;;;;34.14;51.38;100369.66;5105890;27;64752;-32
2022/04/12 08:47:04;;;;;;;16.17;14.65;;;;;;;33.90;51.38;100332.88;5118729;27;69608;-32
2022/04/12 08:49:38;;;;;;;15.55;14.27;;;;;;;34.22;51.22;100385.53;5121984;27;65482;-33
2022/04/12 08:52:13;;;;;;;16.08;14.73;;;;;;;33.88;51.16;100324.97;5120650;27;43097;-33
2022/04/12 08:54:45;;;;;;;16.30;14.90;;;;;;;34.20;51.66;100379.50;5100580;27;65301;-36
2022/04/12 08:57:16;;;;;;;16.80;15.30;;;;;;;34.24;51.27;100377.94;5098871;27;69995;-33
2022/04/12 08:59:48;;;;;;;20.17;15.37;;;;;;;34.21;51.63;100369.44;5101028;27;66030;-33
2022/04/12 09:02:18;;;;;;;16.45;14.88;;;;;;;34.23;51.43;100370.03;5101443;27;69615;-33
2022/04/12 09:04:49;;;;;;;16.42;15.10;;;;;;;34.10;51.32;100349.47;5118434;27;66198;-33
2022/04/12 09:07:27;;;;;;;16.90;15.38;;;;;;;34.24;51.88;100372.50;5118371;27;70513;-33
2022/04/12 09:10:09;;;;;;;15.80;14.52;;;;;;;33.81;51.51;100305.28;5100008;27;65296;-32
2022/04/12 09:12:39;;;;;;;15.50;14.05;;;;;;;34.22;51.90;100374.66;5101542;27;70135;-33
2022/04/12 09:15:12;;;;;;;16.50;15.00;;;;;;;34.22;51.77;100365.66;5137298;27;66283;-32
2022/04/12 09:17:44;;;;;;;15.48;14.18;;;;;;;34.24;51.97;100369.78;5100163;27;70422;-33
2022/04/12 09:20:19;;;;;;;16.83;15.02;;;;;;;34.15;51.49;100359.59;5101335;27;66420;-33
2022/04/12 09:22:50;;;;;;;15.32;14.10;;;;;;;34.24;51.53;100377.09;5108675;27;69481;-33
2022/04/12 09:25:21;;;;;;;16.90;15.23;;;;;;;34.24;51.50;100377.94;5121492;27;65855;-33
2022/04/12 09:27:51;;;;;;;16.77;15.25;;;;;;;34.16;51.89;100358.53;5137225;27;70266;-33
2022/04/12 09:30:22;;;;;;;15.48;14.27;;;;;;;34.26;51.73;100385.84;5109390;27;64646;-32
2022/04/12 09:32:53;;;;;;;16.83;15.25;;;;;;;34.23;51.75;100372.75;5116566;27;70516;-32
2022/04/12 09:35:25;;;;;;;16.45;14.95;;;;;;;34.25;51.75;100374.13;5102159;27;65352;-34
2022/04/12 09:37:55;;;;;;;15.10;14.00;;;;;;;34.23;52.20;100376.28;5100089;27;70346;-33
2022/04/12 09:40:27;;;;;;;15.63;14.13;;;;;;;34.22;52.01;100380.09;5115412;27;66337;-34
2022/04/12 09:43:00;;;;;;;15.73;14.15;;;;;;;34.16;52.06;100375.69;5099887;27;70060;-33
2022/04/12 09:45:33;;;;;;;16.30;14.77;;;;;;;34.23;51.73;100375.47;5100183;27;66301;-32
2022/04/12 09:48:06;;;;;;;16.13;14.80;;;;;;;33.95;52.03;100330.22;5099620;27;69851;-32
2022/04/12 09:51:00;;;;;;;15.57;14.20;;;;;;;34.22;51.85;100385.53;5115198;27;66689;-33
2022/04/12 09:53:39;;;;;;;16.80;15.23;;;;;;;34.22;51.95;100401.88;5089452;27;69774;-32
2022/04/12 09:56:30;;;;;;;15.13;13.95;;;;;;;34.10;52.42;100378.56;5118303;27;66136;-33
2022/04/12 09:59:06;;;;;;;15.73;14.25;;;;;;;34.23;52.52;100391.81;5115646;27;70206;-34
2022/04/12 10:01:41;;;;;;;16.13;14.50;;;;;;;34.23;52.20;100387.16;5116352;27;66571;-33
2022/04/12 10:04:15;;;;;;;14.95;13.73;;;;;;;34.22;52.36;100390.97;5101950;27;70471;-35
2022/04/12 10:06:52;;;;;;;14.23;13.05;;;;;;;34.23;52.23;100392.63;5117751;27;65466;-37
2022/04/12 10:09:27;;;;;;;15.80;13.60;;;;;;;34.21;52.09;100394.78;5112506;27;69368;-34
2022/04/12 10:11:58;;;;;;;15.38;14.02;;;;;;;34.16;52.46;100386.56;5134546;27;65503;-34
2022/04/12 10:14:31;;;;;;;15.38;13.40;;;;;;;33.84;52.23;100339.34;5092349;27;70138;-34
2022/04/12 10:17:04;;;;;;;15.27;13.77;;;;;;;34.18;52.55;100398.00;5119159;27;66423;-33
2022/04/12 10:19:36;;;;;;;16.80;14.60;;;;;;;34.18;52.72;100395.28;5112361;27;69128;-33
2022/04/12 10:22:06;;;;;;;;;;;;;;;33.58;56.53;100396.94;5109857;27;65520;-34
2022/04/12 10:24:38;;;;;;;25.50;18.98;;;;;;;33.68;57.25;100407.13;5099537;27;69733;-35
2022/04/12 10:27:09;;;;;;;26.00;20.23;;;;;;;33.65;58.16;100390.50;5104809;27;66120;-36
2022/04/12 10:30:01;;;;;;;29.10;20.60;;;;;;;33.18;58.85;100328.34;5116216;27;70204;-34
2022/04/12 10:32:32;;;;;;;29.58;21.73;;;;;;;33.44;59.65;100386.66;5117595;27;66014;-34
2022/04/12 10:35:07;;;;;;;29.73;21.00;;;;;;;33.46;59.87;100398.06;5108274;27;68943;-35
2022/04/12 10:37:40;;;;;;;30.05;22.13;;;;;;;33.36;60.23;100391.41;5116498;27;65523;-34
2022/04/12 10:40:35;;;;;;;32.93;21.67;;;;;;;33.36;60.61;100405.00;5106740;27;69676;-34
2022/04/12 10:43:06;;;;;;;30.35;22.92;;;;;;;33.27;60.99;100392.09;5117552;27;65161;-34
2022/04/12 10:45:46;;;;;;;36.25;22.05;;;;;;;33.34;61.51;100418.03;5112065;27;69731;-34
2022/04/12 10:48:22;;;;;;;34.30;20.77;;;;;;;33.32;61.37;100422.91;5133583;27;66191;-33
2022/04/12 10:50:56;;;;;;;28.58;21.27;;;;;;;33.29;61.13;100420.69;5112731;27;70493;-34
2022/04/12 10:53:39;;;;;;;31.27;21.55;;;;;;;33.21;61.32;100431.97;5102327;27;65673;-34
2022/04/12 10:56:11;;;;;;;35.75;21.13;;;;;;;33.24;61.35;100434.19;5109409;27;69093;-33
2022/04/12 10:58:44;;;;;;;28.75;21.67;;;;;;;33.24;61.62;100439.63;5118610;27;65283;-35
2022/04/12 11:01:35;;;;;;;37.55;23.38;;;;;;;33.16;62.08;100437.31;5117727;27;70242;-33
2022/04/12 11:04:06;;;;;;;28.25;21.70;;;;;;;33.16;61.82;100434.59;5118205;27;66503;-32
2022/04/12 11:10:06;;;;;;;29.00;23.45;;;;;;;33.03;62.29;100448.50;5115539;27;66371;-34
2022/04/12 11:12:49;;;;;;;34.85;23.73;;;;;;;33.12;62.27;100444.31;5115078;27;70123;-33
2022/04/12 11:15:28;;;;;;;32.35;23.85;;;;;;;33.11;62.35;100450.81;5111366;27;65710;-33
2022/04/12 11:18:21;;;;;;;30.80;22.58;;;;;;;33.00;62.67;100463.41;5128531;27;69422;-34
2022/04/12 11:21:02;;;;;;;29.73;22.95;;;;;;;33.08;62.97;100467.63;5105334;27;66415;-33
2022/04/12 11:23:54;;;;;;;43.00;23.65;;;;;;;32.67;63.29;100412.50;5105166;27;68819;-34
2022/04/12 11:26:47;;;;;;;36.22;24.17;;;;;;;32.79;63.44;100447.75;5100206;27;66299;-35
2022/04/12 11:29:23;;;;;;;28.83;22.90;;;;;;;33.06;63.97;100480.63;5109232;27;70214;-37
2022/04/12 11:31:55;;;;;;;30.08;23.33;;;;;;;32.65;63.65;100420.94;5110449;27;65375;-35
2022/04/12 11:34:28;;;;;;;33.22;24.38;;;;;;;32.62;64.10;100428.72;5106112;27;69482;-33
2022/04/12 11:37:08;;;;;;;32.42;24.05;;;;;;;32.92;64.25;100483.59;5106139;27;66842;-33
2022/04/12 11:39:42;;;;;;;37.25;24.40;;;;;;;32.68;64.19;100435.88;5108570;27;70055;-34